e-Mail: Password: Lost your password? Click here. - Register a new user

c h a v e z j u a r e z . c o m

Weather - Tiempo - Wetter - Temps

METAR DATA MMMX (Mexico City)

Mexico City / Licenci, Mexico (MMMX) 19-26N 099-06W
Feb 24, 2018 - 12:46 AM EST / 2018.02.24 0546 UTC
Wind: from the NE (050 degrees) at 6 MPH (5 KT):0
Visibility: 7 mile(s):0
Sky conditions: mostly cloudy
Temperature: 62 F (17 C)
Dew Point: 41 F (5 C)
Relative Humidity: 45%
Pressure (altimeter): 30.34 in. Hg (1027 hPa)
Pressure tendency: 0.03 inches (0.9 hPa) higher than three hours ago
ob: MMMX 240546Z 05005KT 7SM FEW020 SCT080 BKN200 17/05 A3034 NOSIG RMK SLP093 52009 972 8/532 HZY
cycle: 6

Mexico City

St. Prex




Current weather alarms for Switzerland


www.wetteralarm.ch